createdAt,value
2023-04-29T00:01:49.099Z,100162.00
2023-04-29T00:04:17.589Z,100159.86
2023-04-29T00:06:46.191Z,100160.02
2023-04-29T00:09:14.468Z,100159.80
2023-04-29T00:11:42.642Z,100157.36
2023-04-29T00:14:10.708Z,100163.75
2023-04-29T00:16:38.904Z,100162.09
2023-04-29T00:19:07.256Z,100159.60
2023-04-29T00:21:35.529Z,100158.80
2023-04-29T00:24:03.805Z,100158.27
2023-04-29T00:26:32.386Z,100154.88
2023-04-29T00:29:00.761Z,100153.27
2023-04-29T00:31:29.540Z,100145.88
2023-04-29T00:33:58.243Z,100141.41
2023-04-29T00:36:26.529Z,100142.02
2023-04-29T00:38:54.680Z,100143.73
2023-04-29T00:41:22.853Z,100144.42
2023-04-29T00:43:50.924Z,100142.23
2023-04-29T00:46:19.114Z,100140.36
2023-04-29T00:48:47.375Z,100136.77
2023-04-29T00:51:17.502Z,100137.00
2023-04-29T00:53:47.014Z,100138.57
2023-04-29T00:56:17.426Z,100137.38
2023-04-29T00:58:50.005Z,100136.95
2023-04-29T01:01:22.439Z,100136.56
2023-04-29T01:03:51.569Z,100134.16
2023-04-29T01:06:25.977Z,100132.66
2023-04-29T01:09:32.038Z,100136.10
2023-04-29T01:12:06.857Z,100140.75
2023-04-29T01:14:36.787Z,100139.64
2023-04-29T01:17:12.324Z,100135.92
2023-04-29T01:19:53.674Z,100130.85
2023-04-29T01:22:23.520Z,100127.37
2023-04-29T01:24:51.799Z,100130.15
2023-04-29T01:27:30.104Z,100131.61
2023-04-29T01:30:27.164Z,100132.44
2023-04-29T01:33:04.830Z,100128.67
2023-04-29T01:35:42.040Z,100125.61
2023-04-29T01:38:13.477Z,100125.70
2023-04-29T01:41:02.552Z,100129.70
2023-04-29T01:43:34.319Z,100131.98
2023-04-29T01:46:11.908Z,100128.27
2023-04-29T01:48:40.880Z,100123.97
2023-04-29T01:51:09.057Z,100125.79
2023-04-29T01:53:37.428Z,100121.60
2023-04-29T01:56:06.438Z,100119.82
2023-04-29T01:59:00.908Z,100116.68
2023-04-29T02:01:32.362Z,100116.20
2023-04-29T02:04:00.759Z,100111.38
2023-04-29T02:06:29.215Z,100112.11
2023-04-29T02:09:01.383Z,100110.77
2023-04-29T02:11:29.558Z,100108.25
2023-04-29T02:13:58.762Z,100107.41
2023-04-29T02:16:27.285Z,100104.52
2023-04-29T02:18:59.091Z,100105.45
2023-04-29T02:21:27.487Z,100109.29
2023-04-29T02:23:55.848Z,100109.13
2023-04-29T02:26:25.659Z,100110.77
2023-04-29T02:28:57.534Z,100110.15
2023-04-29T02:31:26.121Z,100110.58
2023-04-29T02:33:55.803Z,100105.74
2023-04-29T02:36:24.897Z,100104.59
2023-04-29T02:38:56.034Z,100103.90
2023-04-29T02:41:26.055Z,100101.61
2023-04-29T02:43:54.336Z,100100.73
2023-04-29T02:46:22.851Z,100099.38
2023-04-29T02:48:51.311Z,100100.91
2023-04-29T02:51:20.209Z,100102.09
2023-04-29T02:53:48.463Z,100102.58
2023-04-29T02:56:16.630Z,100101.05
2023-04-29T02:58:44.816Z,100096.31
2023-04-29T03:01:13.205Z,100095.21
2023-04-29T03:03:41.777Z,100092.19
2023-04-29T03:06:10.479Z,100085.87
2023-04-29T03:08:38.624Z,100085.47
2023-04-29T03:11:07.019Z,100081.04
2023-04-29T03:13:35.474Z,100076.86
2023-04-29T03:16:03.868Z,100073.15
2023-04-29T03:18:32.533Z,100073.95
2023-04-29T03:21:00.709Z,100066.95
2023-04-29T03:23:29.281Z,100057.55
2023-04-29T03:25:57.784Z,100052.95
2023-04-29T03:28:27.476Z,100055.45
2023-04-29T03:30:57.028Z,100068.44
2023-04-29T03:33:25.559Z,100073.27
2023-04-29T03:35:53.831Z,100081.12
2023-04-29T03:38:26.208Z,100079.88
2023-04-29T03:40:55.096Z,100081.66
2023-04-29T03:43:23.469Z,100083.04
2023-04-29T03:45:52.083Z,100084.27
2023-04-29T03:48:21.751Z,100085.27
2023-04-29T03:50:50.131Z,100087.96
2023-04-29T03:53:18.737Z,100087.52
2023-04-29T03:55:48.625Z,100091.92
2023-04-29T03:58:17.411Z,100091.83
2023-04-29T04:00:46.199Z,100094.52
2023-04-29T04:03:17.851Z,100097.20
2023-04-29T04:05:46.126Z,100098.08
2023-04-29T04:08:16.145Z,100098.98
2023-04-29T04:10:52.612Z,100092.63
2023-04-29T04:13:30.816Z,100087.28
2023-04-29T04:15:59.522Z,100092.77
2023-04-29T04:18:27.877Z,100089.38
2023-04-29T04:20:56.053Z,100094.04
2023-04-29T04:23:25.967Z,100094.69
2023-04-29T04:25:55.165Z,100090.54
2023-04-29T04:28:46.680Z,100086.09
2023-04-29T04:31:21.276Z,100087.30
2023-04-29T04:33:49.681Z,100089.02
2023-04-29T04:36:18.059Z,100087.22
2023-04-29T04:38:46.641Z,100086.60
2023-04-29T04:41:14.916Z,100083.71
2023-04-29T04:43:45.452Z,100082.94
2023-04-29T04:46:32.461Z,100082.77
2023-04-29T04:49:07.900Z,100086.27
2023-04-29T04:51:36.794Z,100081.53
2023-04-29T04:54:04.962Z,100082.88
2023-04-29T04:56:34.773Z,100087.11
2023-04-29T04:59:03.872Z,100089.11
2023-04-29T05:01:32.281Z,100085.21
2023-04-29T05:04:01.164Z,100077.52
2023-04-29T05:06:29.613Z,100070.45
2023-04-29T05:08:58.103Z,100063.83
2023-04-29T05:11:26.473Z,100069.80
2023-04-29T05:14:14.811Z,100064.98
2023-04-29T05:16:45.196Z,100067.45
2023-04-29T05:19:13.718Z,100076.13
2023-04-29T05:21:41.787Z,100079.65
2023-04-29T05:24:11.516Z,100084.38
2023-04-29T05:26:39.882Z,100079.06
2023-04-29T05:29:08.286Z,100081.70
2023-04-29T05:31:45.129Z,100082.14
2023-04-29T05:34:13.501Z,100084.14
2023-04-29T05:36:42.599Z,100084.79
2023-04-29T05:39:10.774Z,100086.39
2023-04-29T05:41:38.951Z,100088.21
2023-04-29T05:44:17.969Z,100089.00
2023-04-29T05:46:48.907Z,100091.38
2023-04-29T05:49:17.490Z,100093.17
2023-04-29T05:51:45.673Z,100090.48
2023-04-29T05:54:14.548Z,100090.77
2023-04-29T05:56:43.135Z,100097.03
2023-04-29T05:59:11.406Z,100105.88
2023-04-29T06:01:40.296Z,100114.63
2023-04-29T06:04:08.733Z,100117.84
2023-04-29T06:06:57.637Z,100117.87
2023-04-29T06:09:45.992Z,100118.41
2023-04-29T06:12:14.561Z,100121.01
2023-04-29T06:14:44.674Z,100124.69
2023-04-29T06:17:13.056Z,100124.15
2023-04-29T06:19:41.544Z,100125.59
2023-04-29T06:22:10.902Z,100125.57
2023-04-29T06:24:42.077Z,100125.98
2023-04-29T06:27:12.716Z,100126.52
2023-04-29T06:29:40.981Z,100125.92
2023-04-29T06:32:09.237Z,100122.34
2023-04-29T06:34:39.690Z,100121.34
2023-04-29T06:37:23.929Z,100119.78
2023-04-29T06:40:07.154Z,100115.33
2023-04-29T06:43:05.535Z,100109.39
2023-04-29T06:46:00.126Z,100105.51
2023-04-29T06:48:38.026Z,100101.34
2023-04-29T06:51:06.306Z,100098.18
2023-04-29T06:53:37.954Z,100098.71
2023-04-29T06:56:07.773Z,100097.80
2023-04-29T06:58:35.947Z,100098.17
2023-04-29T07:01:05.089Z,100096.92
2023-04-29T07:03:33.510Z,100091.79
2023-04-29T07:06:02.023Z,100095.78
2023-04-29T07:08:31.094Z,100100.61
2023-04-29T07:10:59.372Z,100102.98
2023-04-29T07:13:27.742Z,100104.42
2023-04-29T07:15:56.226Z,100109.73
2023-04-29T07:18:24.526Z,100107.63
2023-04-29T07:20:53.164Z,100108.23
2023-04-29T07:23:21.966Z,100108.86
2023-04-29T07:25:50.136Z,100103.33
2023-04-29T07:28:18.716Z,100102.61
2023-04-29T07:30:47.239Z,100099.77
2023-04-29T07:33:15.475Z,100101.35
2023-04-29T07:35:44.767Z,100107.61
2023-04-29T07:38:14.070Z,100110.46
2023-04-29T07:40:43.271Z,100112.16
2023-04-29T07:43:11.741Z,100118.30
2023-04-29T07:45:40.733Z,100119.23
2023-04-29T07:48:08.912Z,100125.70
2023-04-29T07:50:37.491Z,100127.42
2023-04-29T07:53:06.180Z,100125.95
2023-04-29T07:55:34.342Z,100124.33
2023-04-29T07:58:02.827Z,100125.50
2023-04-29T08:00:31.712Z,100129.71
2023-04-29T08:03:00.015Z,100130.73
2023-04-29T08:05:30.973Z,100131.98
2023-04-29T08:07:59.811Z,100134.21
2023-04-29T08:10:28.192Z,100135.74
2023-04-29T08:12:56.461Z,100136.09
2023-04-29T08:15:24.844Z,100138.14
2023-04-29T08:17:54.598Z,100135.64
2023-04-29T08:20:23.531Z,100139.40
2023-04-29T08:22:51.923Z,100139.84
2023-04-29T08:25:20.499Z,100136.25
2023-04-29T08:27:49.055Z,100136.29
2023-04-29T08:30:17.661Z,100139.10
2023-04-29T08:32:46.025Z,100138.09
2023-04-29T08:35:14.318Z,100137.14
2023-04-29T08:37:42.690Z,100134.96
2023-04-29T08:40:11.478Z,100136.61
2023-04-29T08:42:39.851Z,100136.34
2023-04-29T08:45:08.646Z,100135.15
2023-04-29T08:47:37.303Z,100137.02
2023-04-29T08:50:06.730Z,100133.83
2023-04-29T08:52:36.264Z,100136.98
2023-04-29T08:55:05.775Z,100137.67
2023-04-29T08:57:42.816Z,100138.58
2023-04-29T09:00:12.192Z,100133.86
2023-04-29T09:02:51.397Z,100134.73
2023-04-29T09:05:20.134Z,100133.23
2023-04-29T09:07:48.930Z,100128.99
2023-04-29T09:10:17.414Z,100133.13
2023-04-29T09:12:46.489Z,100128.14
2023-04-29T09:15:14.669Z,100127.66
2023-04-29T09:17:44.843Z,100129.26
2023-04-29T09:20:22.234Z,100138.02
2023-04-29T09:23:04.245Z,100131.58
2023-04-29T09:25:32.721Z,100134.30
2023-04-29T09:28:15.272Z,100129.02
2023-04-29T09:30:47.425Z,100131.32
2023-04-29T09:33:17.541Z,100134.34
2023-04-29T09:35:47.262Z,100139.32
2023-04-29T09:38:16.558Z,100140.26
2023-04-29T09:40:58.316Z,100145.41
2023-04-29T09:43:27.658Z,100141.66
2023-04-29T09:45:56.025Z,100136.75
2023-04-29T09:48:31.839Z,100142.18
2023-04-29T09:51:04.730Z,100143.52
2023-04-29T09:53:33.577Z,100145.86
2023-04-29T09:56:02.865Z,100145.98
2023-04-29T09:58:39.067Z,100146.98
2023-04-29T10:01:07.736Z,100145.98
2023-04-29T10:03:38.170Z,100149.48
2023-04-29T10:06:07.944Z,100151.60
2023-04-29T10:08:36.498Z,100145.91
2023-04-29T10:11:06.155Z,100145.67
2023-04-29T10:13:38.941Z,100145.79
2023-04-29T10:16:24.009Z,100146.17
2023-04-29T10:18:56.733Z,100146.73
2023-04-29T10:21:31.357Z,100146.45
2023-04-29T10:24:00.550Z,100147.21
2023-04-29T10:26:30.091Z,100140.42
2023-04-29T10:29:02.444Z,100136.63
2023-04-29T10:31:32.165Z,100136.18
2023-04-29T10:34:01.953Z,100135.20
2023-04-29T10:36:31.795Z,100136.03
2023-04-29T10:39:02.082Z,100131.90
2023-04-29T10:41:35.762Z,100128.84
2023-04-29T10:44:04.791Z,100129.33
2023-04-29T10:46:33.067Z,100126.17
2023-04-29T10:49:03.495Z,100120.00
2023-04-29T10:51:34.300Z,100120.67
2023-04-29T10:54:16.716Z,100118.61
2023-04-29T10:56:50.596Z,100114.38
2023-04-29T10:59:28.101Z,100114.27
2023-04-29T11:01:56.706Z,100114.48
2023-04-29T11:04:25.119Z,100110.33
2023-04-29T11:06:59.268Z,100110.40
2023-04-29T11:09:29.096Z,100108.09
2023-04-29T11:12:01.741Z,100110.31
2023-04-29T11:14:37.586Z,100107.49
2023-04-29T11:17:08.763Z,100109.04
2023-04-29T11:19:41.237Z,100108.58
2023-04-29T11:22:10.659Z,100108.46
2023-04-29T11:25:02.180Z,100112.07
2023-04-29T11:27:32.704Z,100115.02
2023-04-29T11:30:04.119Z,100125.58
2023-04-29T11:32:37.234Z,100134.14
2023-04-29T11:35:09.297Z,100141.09
2023-04-29T11:37:38.178Z,100141.01
2023-04-29T11:40:07.407Z,100134.59
2023-04-29T11:42:39.030Z,100128.80
2023-04-29T11:45:07.712Z,100127.41
2023-04-29T11:47:36.123Z,100127.16
2023-04-29T11:50:09.087Z,100130.30
2023-04-29T11:52:39.204Z,100134.68
2023-04-29T11:55:11.917Z,100137.95
2023-04-29T11:57:40.857Z,100137.41
2023-04-29T12:00:13.332Z,100135.43
2023-04-29T12:02:45.387Z,100132.16
2023-04-29T12:05:16.236Z,100129.20
2023-04-29T12:07:45.011Z,100131.23
2023-04-29T12:10:13.343Z,100126.89
2023-04-29T12:12:44.291Z,100128.48
2023-04-29T12:15:13.316Z,100126.89
2023-04-29T12:17:43.062Z,100124.37
2023-04-29T12:20:12.311Z,100130.41
2023-04-29T12:22:44.216Z,100123.39
2023-04-29T12:25:12.990Z,100125.16
2023-04-29T12:27:44.235Z,100125.41
2023-04-29T12:30:13.104Z,100125.77
2023-04-29T12:32:42.202Z,100128.36
2023-04-29T12:35:17.885Z,100124.64
2023-04-29T12:37:52.342Z,100124.83
2023-04-29T12:40:21.209Z,100122.78
2023-04-29T12:42:49.629Z,100122.11
2023-04-29T12:45:28.351Z,100120.08
2023-04-29T12:48:00.966Z,100123.64
2023-04-29T12:50:34.541Z,100127.41
2023-04-29T12:53:05.042Z,100125.17
2023-04-29T12:55:38.049Z,100128.13
2023-04-29T12:58:07.528Z,100120.88
2023-04-29T13:00:37.715Z,100123.84
2023-04-29T13:03:06.323Z,100125.09
2023-04-29T13:05:35.045Z,100127.44
2023-04-29T13:08:06.097Z,100145.80
2023-04-29T13:10:34.857Z,100163.23
2023-04-29T13:13:03.130Z,100160.44
2023-04-29T13:15:33.432Z,100163.73
2023-04-29T13:18:02.666Z,100165.71
2023-04-29T13:20:31.430Z,100164.63
2023-04-29T13:22:59.809Z,100166.88
2023-04-29T13:25:27.982Z,100166.48
2023-04-29T13:27:56.171Z,100166.02
2023-04-29T13:30:24.539Z,100167.67
2023-04-29T13:32:55.521Z,100169.17
2023-04-29T13:35:26.915Z,100167.95
2023-04-29T13:37:55.093Z,100162.98
2023-04-29T13:40:27.562Z,100161.84
2023-04-29T13:43:04.375Z,100161.20
2023-04-29T13:45:39.928Z,100156.08
2023-04-29T13:48:20.976Z,100159.40
2023-04-29T13:56:59.704Z,100155.89
2023-04-29T14:03:54.272Z,100158.58
2023-04-29T14:06:22.710Z,100164.27
2023-04-29T14:08:51.187Z,100161.64
2023-04-29T14:11:19.876Z,100163.47
2023-04-29T14:13:47.952Z,100163.95
2023-04-29T14:16:17.191Z,100158.64
2023-04-29T14:18:45.438Z,100164.98
2023-04-29T14:21:13.998Z,100164.96
2023-04-29T14:23:42.277Z,100169.81
2023-04-29T14:26:27.020Z,100168.77
2023-04-29T14:29:00.054Z,100170.60
2023-04-29T14:31:30.793Z,100170.83
2023-04-29T14:33:59.568Z,100169.95
2023-04-29T14:36:28.448Z,100180.12
2023-04-29T14:38:56.701Z,100177.17
2023-04-29T14:41:25.385Z,100179.70
2023-04-29T14:43:53.760Z,100187.17
2023-04-29T14:46:25.527Z,100198.64
2023-04-29T14:48:53.689Z,100202.14
2023-04-29T14:51:21.756Z,100204.47
2023-04-29T14:53:50.440Z,100201.14
2023-04-29T14:56:18.718Z,100201.11
2023-04-29T14:58:46.788Z,100205.36
2023-04-29T15:01:15.073Z,100203.41
2023-04-29T15:03:44.781Z,100200.22
2023-04-29T15:06:13.503Z,100201.84
2023-04-29T15:08:41.932Z,100205.17
2023-04-29T15:11:10.204Z,100207.75
2023-04-29T15:13:38.479Z,100210.00
2023-04-29T15:16:08.001Z,100215.95
2023-04-29T15:18:36.897Z,100219.95
2023-04-29T15:21:05.149Z,100217.98
2023-04-29T15:23:33.636Z,100227.27
2023-04-29T15:26:01.801Z,100225.88
2023-04-29T15:28:30.082Z,100233.09
2023-04-29T15:31:00.003Z,100234.77
2023-04-29T15:33:28.162Z,100239.73
2023-04-29T15:35:57.265Z,100245.70
2023-04-29T15:38:25.427Z,100256.84
2023-04-29T15:40:59.440Z,100260.23
2023-04-29T15:43:28.317Z,100260.69
2023-04-29T15:45:56.951Z,100272.72
2023-04-29T15:48:25.405Z,100277.81
2023-04-29T15:50:53.878Z,100285.40
2023-04-29T15:53:23.438Z,100289.89
2023-04-29T15:55:51.856Z,100294.46
2023-04-29T15:58:20.019Z,100296.65
2023-04-29T16:00:48.748Z,100301.29
2023-04-29T16:03:16.946Z,100304.85
2023-04-29T16:05:45.363Z,100312.76
2023-04-29T16:08:13.941Z,100313.52
2023-04-29T16:10:42.011Z,100316.85
2023-04-29T16:13:10.186Z,100319.56
2023-04-29T16:15:38.574Z,100318.38
2023-04-29T16:18:06.935Z,100322.36
2023-04-29T16:20:35.018Z,100321.08
2023-04-29T16:23:03.294Z,100325.67
2023-04-29T16:25:31.454Z,100323.52
2023-04-29T16:27:59.538Z,100322.91
2023-04-29T16:30:28.317Z,100325.86
2023-04-29T16:32:56.727Z,100327.40
2023-04-29T16:35:26.809Z,100330.16
2023-04-29T16:37:55.811Z,100334.14
2023-04-29T16:40:24.646Z,100336.77
2023-04-29T16:42:53.614Z,100342.21
2023-04-29T16:45:23.834Z,100349.23
2023-04-29T16:47:52.469Z,100356.42
2023-04-29T16:50:20.655Z,100354.23
2023-04-29T16:52:48.837Z,100355.95
2023-04-29T16:55:17.117Z,100360.98
2023-04-29T16:57:45.276Z,100367.66
2023-04-29T17:00:14.143Z,100369.45
2023-04-29T17:02:43.174Z,100373.84
2023-04-29T17:05:11.658Z,100375.27
2023-04-29T17:07:40.833Z,100379.06
2023-04-29T17:10:10.026Z,100382.30
2023-04-29T17:12:39.123Z,100388.53
2023-04-29T17:15:08.010Z,100390.92
2023-04-29T17:17:36.654Z,100393.37
2023-04-29T17:20:05.582Z,100398.92
2023-04-29T17:22:33.761Z,100406.64
2023-04-29T17:25:02.556Z,100406.48
2023-04-29T17:27:31.199Z,100411.77
2023-04-29T17:29:59.313Z,100412.16
2023-04-29T17:32:30.672Z,100417.33
2023-04-29T17:34:59.736Z,100419.19
2023-04-29T17:37:30.446Z,100423.28
2023-04-29T17:39:58.745Z,100425.44
2023-04-29T17:42:26.910Z,100427.88
2023-04-29T17:44:55.198Z,100428.20
2023-04-29T17:47:23.523Z,100432.17
2023-04-29T17:49:52.206Z,100430.39
2023-04-29T17:52:21.518Z,100429.47
2023-04-29T17:54:49.834Z,100433.06
2023-04-29T17:57:18.003Z,100437.65
2023-04-29T17:59:47.293Z,100436.09
2023-04-29T18:02:15.567Z,100440.97
2023-04-29T18:04:43.846Z,100443.41
2023-04-29T18:07:12.125Z,100444.80
2023-04-29T18:09:40.301Z,100449.14
2023-04-29T18:12:09.010Z,100454.95
2023-04-29T18:14:39.296Z,100458.30
2023-04-29T18:17:07.690Z,100464.62
2023-04-29T18:19:35.949Z,100468.27
2023-04-29T18:22:04.122Z,100472.33
2023-04-29T18:24:32.303Z,100470.31
2023-04-29T18:27:00.475Z,100476.46
2023-04-29T18:29:28.647Z,100480.53
2023-04-29T18:31:56.895Z,100485.02
2023-04-29T18:34:25.288Z,100490.63
2023-04-29T18:36:53.567Z,100490.13
2023-04-29T18:39:21.951Z,100493.15
2023-04-29T18:41:50.115Z,100500.69
2023-04-29T18:44:18.283Z,100503.99
2023-04-29T18:46:46.457Z,100506.80
2023-04-29T18:49:17.159Z,100514.15
2023-04-29T18:51:48.078Z,100517.50
2023-04-29T18:54:17.950Z,100520.93
2023-04-29T18:56:47.706Z,100521.23
2023-04-29T18:59:19.619Z,100522.98
2023-04-29T19:01:49.138Z,100524.04
2023-04-29T19:04:17.413Z,100528.95
2023-04-29T19:06:45.602Z,100529.48
2023-04-29T19:09:14.552Z,100535.62
2023-04-29T19:11:42.830Z,100538.77
2023-04-29T19:14:11.304Z,100540.58
2023-04-29T19:16:39.676Z,100543.73
2023-04-29T19:19:07.865Z,100544.94
2023-04-29T19:21:36.226Z,100550.86
2023-04-29T19:24:04.807Z,100551.37
2023-04-29T19:26:34.955Z,100556.61
2023-04-29T19:29:04.740Z,100559.41
2023-04-29T19:31:33.342Z,100560.34
2023-04-29T19:34:02.008Z,100565.98
2023-04-29T19:36:30.380Z,100569.13
2023-04-29T19:38:58.570Z,100570.95
2023-04-29T19:41:26.732Z,100574.10
2023-04-29T19:43:54.797Z,100576.05
2023-04-29T19:46:22.983Z,100577.16
2023-04-29T19:48:51.266Z,100579.80
2023-04-29T19:51:19.523Z,100577.70
2023-04-29T19:53:47.796Z,100584.74
2023-04-29T19:56:16.580Z,100584.29
2023-04-29T19:58:44.753Z,100585.52
2023-04-29T20:01:12.835Z,100587.12
2023-04-29T20:03:41.929Z,100590.46
2023-04-29T20:06:10.678Z,100596.80
2023-04-29T20:08:38.884Z,100602.92
2023-04-29T20:11:07.053Z,100608.54
2023-04-29T20:13:35.222Z,100613.04
2023-04-29T20:16:03.422Z,100616.06
2023-04-29T20:18:31.666Z,100620.30
2023-04-29T20:21:00.047Z,100627.11
2023-04-29T20:23:28.318Z,100630.45
2023-04-29T20:25:57.102Z,100633.43
2023-04-29T20:28:25.377Z,100635.16
2023-04-29T20:30:53.449Z,100635.34
2023-04-29T20:33:21.826Z,100640.70
2023-04-29T20:35:50.004Z,100639.71
2023-04-29T20:38:18.176Z,100644.82
2023-04-29T20:40:46.442Z,100644.73
2023-04-29T20:43:14.717Z,100651.65
2023-04-29T20:45:43.139Z,100654.52
2023-04-29T20:48:11.288Z,100656.38
2023-04-29T20:50:39.440Z,100659.25
2023-04-29T20:53:07.717Z,100658.09
2023-04-29T20:55:35.995Z,100660.54
2023-04-29T20:58:04.063Z,100659.23
2023-04-29T21:00:32.236Z,100662.08
2023-04-29T21:03:00.454Z,100663.86
2023-04-29T21:05:28.685Z,100668.44
2023-04-29T21:07:56.855Z,100669.30
2023-04-29T21:10:25.131Z,100673.16
2023-04-29T21:12:53.303Z,100671.31
2023-04-29T21:15:21.481Z,100675.91
2023-04-29T21:17:49.670Z,100678.42
2023-04-29T21:20:17.834Z,100682.52
2023-04-29T21:22:46.093Z,100686.79
2023-04-29T21:25:14.164Z,100689.46
2023-04-29T21:27:42.334Z,100693.36
2023-04-29T21:30:11.428Z,100698.95
2023-04-29T21:32:39.521Z,100702.31
2023-04-29T21:35:08.765Z,100705.33
2023-04-29T21:37:37.275Z,100707.63
2023-04-29T21:40:06.268Z,100705.06
2023-04-29T21:42:34.951Z,100706.33
2023-04-29T21:45:03.430Z,100711.11
2023-04-29T21:47:31.723Z,100710.48
2023-04-29T21:50:00.901Z,100712.83
2023-04-29T21:52:34.945Z,100711.89
2023-04-29T21:55:04.103Z,100711.95
2023-04-29T21:57:43.689Z,100715.69
2023-04-29T22:00:33.188Z,100720.48
2023-04-29T22:03:05.613Z,100723.16
2023-04-29T22:05:33.872Z,100724.81
2023-04-29T22:08:03.259Z,100722.95
2023-04-29T22:10:31.948Z,100725.24
2023-04-29T22:13:00.224Z,100726.31
2023-04-29T22:15:29.465Z,100729.83
2023-04-29T22:17:58.420Z,100732.65
2023-04-29T22:20:28.032Z,100736.14
2023-04-29T22:22:56.595Z,100738.21
2023-04-29T22:25:24.880Z,100735.93
2023-04-29T22:27:53.042Z,100737.02
2023-04-29T22:30:21.363Z,100738.39
2023-04-29T22:32:49.642Z,100740.86
2023-04-29T22:35:17.997Z,100738.64
2023-04-29T22:37:46.352Z,100744.60
2023-04-29T22:40:14.621Z,100743.94
2023-04-29T22:42:43.167Z,100748.37
2023-04-29T22:45:12.600Z,100750.88
2023-04-29T22:47:40.929Z,100751.63
2023-04-29T22:50:10.387Z,100758.32
2023-04-29T22:52:38.569Z,100756.45
2023-04-29T22:55:07.278Z,100757.71
2023-04-29T22:57:35.627Z,100758.61
2023-04-29T23:00:04.304Z,100755.67
2023-04-29T23:02:32.548Z,100759.73
2023-04-29T23:05:01.045Z,100760.15
2023-04-29T23:07:29.336Z,100758.39
2023-04-29T23:09:57.501Z,100759.29
2023-04-29T23:12:25.683Z,100762.45
2023-04-29T23:14:53.949Z,100764.58
2023-04-29T23:17:22.221Z,100769.33
2023-04-29T23:19:50.402Z,100771.80
2023-04-29T23:22:18.774Z,100773.06
2023-04-29T23:24:47.067Z,100774.38
2023-04-29T23:27:15.224Z,100773.94
2023-04-29T23:29:43.394Z,100775.38
2023-04-29T23:32:11.463Z,100779.63
2023-04-29T23:34:39.737Z,100778.97
2023-04-29T23:37:07.910Z,100784.90
2023-04-29T23:39:36.162Z,100786.48
2023-04-29T23:42:04.356Z,100788.27
2023-04-29T23:44:32.528Z,100790.06
2023-04-29T23:47:00.909Z,100789.04
2023-04-29T23:49:28.979Z,100790.30
2023-04-29T23:51:57.169Z,100792.61
2023-04-29T23:54:25.431Z,100795.48
2023-04-29T23:56:53.595Z,100795.53
2023-04-29T23:59:21.790Z,100799.27
